createdAt,value
2019-04-04T00:00:07.802Z,7.95
2019-04-04T00:02:38.705Z,7.28
2019-04-04T00:05:09.454Z,7.70
2019-04-04T00:07:40.374Z,7.95
2019-04-04T00:10:11.311Z,6.95
2019-04-04T00:12:42.184Z,7.35
2019-04-04T00:15:14.868Z,7.28
2019-04-04T00:17:45.587Z,7.17
2019-04-04T00:20:16.431Z,7.55
2019-04-04T00:22:47.449Z,7.65
2019-04-04T00:25:18.498Z,7.00
2019-04-04T00:27:49.362Z,7.17
2019-04-04T00:30:20.154Z,7.35
2019-04-04T00:32:52.804Z,6.65
2019-04-04T00:35:23.487Z,7.00
2019-04-04T00:37:54.106Z,7.35
2019-04-04T00:40:24.968Z,7.03
2019-04-04T00:42:55.667Z,7.20
2019-04-04T00:45:28.624Z,7.20
2019-04-04T00:47:58.577Z,6.92
2019-04-04T00:50:29.365Z,6.92
2019-04-04T00:53:00.018Z,6.78
2019-04-04T00:55:30.704Z,7.05
2019-04-04T00:58:01.320Z,7.17
2019-04-04T01:00:32.200Z,7.15
2019-04-04T01:03:02.895Z,6.70
2019-04-04T01:05:33.841Z,6.87
2019-04-04T01:08:04.977Z,6.70
2019-04-04T01:10:37.316Z,6.28
2019-04-04T01:13:08.097Z,6.87
2019-04-04T01:15:38.907Z,7.10
2019-04-04T01:18:09.659Z,8.25
2019-04-04T01:20:40.452Z,6.58
2019-04-04T01:23:11.303Z,7.33
2019-04-04T01:25:42.258Z,6.85
2019-04-04T01:28:12.891Z,6.17
2019-04-04T01:30:44.154Z,6.37
2019-04-04T01:33:14.996Z,6.90
2019-04-04T01:35:46.120Z,6.65
2019-04-04T01:38:17.001Z,7.00
2019-04-04T01:40:47.693Z,6.15
2019-04-04T01:43:18.288Z,7.05
2019-04-04T01:45:48.837Z,6.00
2019-04-04T01:48:19.420Z,6.08
2019-04-04T01:50:53.371Z,6.25
2019-04-04T01:53:22.469Z,6.17
2019-04-04T01:55:52.927Z,6.05
2019-04-04T01:58:23.386Z,6.17
2019-04-04T02:00:53.983Z,6.55
2019-04-04T02:03:24.465Z,6.05
2019-04-04T02:05:57.849Z,6.55
2019-04-04T02:08:27.396Z,6.15
2019-04-04T02:10:57.958Z,6.33
2019-04-04T02:13:28.546Z,6.78
2019-04-04T02:15:58.914Z,5.85
2019-04-04T02:18:29.653Z,6.28
2019-04-04T02:21:00.189Z,6.20
2019-04-04T02:23:31.781Z,6.33
2019-04-04T02:26:04.851Z,5.97
2019-04-04T02:28:34.799Z,5.83
2019-04-04T02:31:07.270Z,6.03
2019-04-04T02:33:38.092Z,6.17
2019-04-04T02:36:08.732Z,6.40
2019-04-04T02:38:39.495Z,5.95
2019-04-04T02:41:15.064Z,5.58
2019-04-04T02:43:42.778Z,5.97
2019-04-04T02:46:13.440Z,6.10
2019-04-04T02:48:44.086Z,5.97
2019-04-04T02:51:14.939Z,5.87
2019-04-04T02:53:45.554Z,6.12
2019-04-04T02:56:16.068Z,6.33
2019-04-04T02:58:47.341Z,5.95
2019-04-04T03:01:17.995Z,6.22
2019-04-04T03:03:48.823Z,5.85
2019-04-04T03:06:24.049Z,5.65
2019-04-04T03:08:51.904Z,5.55
2019-04-04T03:11:22.949Z,5.30
2019-04-04T03:13:53.762Z,5.70
2019-04-04T03:16:24.192Z,5.85
2019-04-04T03:18:54.736Z,6.08
2019-04-04T03:21:25.427Z,5.85
2019-04-04T03:23:56.082Z,5.78
2019-04-04T03:26:26.799Z,5.45
2019-04-04T03:28:57.304Z,5.22
2019-04-04T03:31:27.902Z,6.10
2019-04-04T03:33:58.646Z,5.55
2019-04-04T03:36:30.764Z,5.87
2019-04-04T03:39:01.741Z,5.65
2019-04-04T03:41:35.817Z,5.62
2019-04-04T03:44:04.745Z,5.75
2019-04-04T03:46:38.771Z,5.65
2019-04-04T03:49:07.573Z,5.67
2019-04-04T03:51:38.338Z,5.72
2019-04-04T03:54:13.712Z,5.40
2019-04-04T03:56:44.093Z,5.87
2019-04-04T03:59:14.792Z,5.95
2019-04-04T04:01:46.754Z,5.65
2019-04-04T04:04:17.598Z,5.67
2019-04-04T04:06:48.450Z,5.37
2019-04-04T04:09:19.052Z,5.62
2019-04-04T04:11:49.592Z,5.60
2019-04-04T04:14:22.102Z,5.55
2019-04-04T04:16:54.027Z,5.58
2019-04-04T04:19:30.117Z,5.62
2019-04-04T04:21:57.096Z,5.53
2019-04-04T04:24:29.643Z,5.50
2019-04-04T04:27:00.681Z,5.37
2019-04-04T04:29:31.464Z,6.00
2019-04-04T04:32:02.314Z,5.90
2019-04-04T04:34:34.181Z,5.65
2019-04-04T04:37:04.931Z,5.53
2019-04-04T04:39:40.859Z,5.30
2019-04-04T04:42:07.792Z,5.42
2019-04-04T04:44:39.032Z,5.72
2019-04-04T04:47:09.674Z,5.50
2019-04-04T04:49:40.261Z,5.60
2019-04-04T04:52:14.198Z,5.50
2019-04-04T04:54:43.268Z,5.60
2019-04-04T04:57:28.488Z,6.35
2019-04-04T04:59:46.175Z,6.10
2019-04-04T05:02:17.066Z,7.92
2019-04-04T05:04:47.493Z,6.35
2019-04-04T05:07:18.143Z,6.75
2019-04-04T05:09:48.757Z,6.87
2019-04-04T05:12:21.650Z,8.25
2019-04-04T05:14:51.561Z,8.63
2019-04-04T05:17:22.149Z,9.90
2019-04-04T05:19:52.753Z,9.50
2019-04-04T05:22:23.610Z,10.30
2019-04-04T05:25:07.428Z,10.20
2019-04-04T05:27:26.606Z,10.38
2019-04-04T05:29:57.312Z,9.78
2019-04-04T05:32:27.909Z,10.98
2019-04-04T05:35:00.988Z,11.75
2019-04-04T05:37:30.959Z,12.88
2019-04-04T05:40:01.486Z,13.78
2019-04-04T05:42:33.000Z,14.43
2019-04-04T05:45:04.178Z,13.80
2019-04-04T05:47:34.556Z,14.33
2019-04-04T05:50:05.563Z,14.55
2019-04-04T05:52:36.026Z,14.55
2019-04-04T05:55:09.921Z,14.55
2019-04-04T05:57:39.498Z,14.60
2019-04-04T06:00:13.247Z,14.35
2019-04-04T06:02:44.045Z,14.55
2019-04-04T06:05:14.937Z,15.85
2019-04-04T06:07:45.469Z,14.73
2019-04-04T06:10:18.601Z,15.23
2019-04-04T06:12:49.732Z,15.60
2019-04-04T06:15:20.482Z,15.08
2019-04-04T06:17:51.123Z,15.10
2019-04-04T06:20:21.719Z,15.83
2019-04-04T06:22:52.618Z,15.30
2019-04-04T06:25:23.416Z,16.02
2019-04-04T06:27:54.179Z,14.85
2019-04-04T06:30:25.170Z,14.78
2019-04-04T06:32:55.805Z,15.28
2019-04-04T06:35:26.499Z,15.30
2019-04-04T06:37:57.342Z,14.47
2019-04-04T06:40:28.161Z,15.05
2019-04-04T06:42:59.975Z,14.13
2019-04-04T06:45:30.381Z,14.10
2019-04-04T06:48:01.111Z,13.95
2019-04-04T06:50:31.954Z,15.43
2019-04-04T06:53:02.635Z,13.85
2019-04-04T06:55:37.384Z,14.35
2019-04-04T06:58:08.215Z,13.88
2019-04-04T07:00:41.899Z,14.40
2019-04-04T07:03:11.400Z,14.13
2019-04-04T07:05:42.091Z,14.15
2019-04-04T07:08:14.952Z,14.40
2019-04-04T07:10:57.174Z,14.65
2019-04-04T07:13:22.172Z,14.53
2019-04-04T07:16:05.440Z,14.00
2019-04-04T07:18:21.979Z,13.45
2019-04-04T07:20:52.698Z,13.20
2019-04-04T07:23:27.172Z,13.25
2019-04-04T07:25:55.604Z,13.05
2019-04-04T07:28:26.080Z,13.13
2019-04-04T07:30:56.886Z,12.85
2019-04-04T07:33:27.618Z,13.58
2019-04-04T07:35:59.230Z,13.65
2019-04-04T07:38:30.212Z,12.50
2019-04-04T07:41:01.133Z,13.32
2019-04-04T07:43:31.999Z,12.88
2019-04-04T07:46:15.671Z,12.63
2019-04-04T07:48:35.256Z,13.28
2019-04-04T07:51:06.263Z,13.15
2019-04-04T07:53:37.197Z,13.38
2019-04-04T07:56:07.878Z,12.90
2019-04-04T07:58:38.410Z,12.88
2019-04-04T08:01:08.965Z,13.30
2019-04-04T08:03:40.080Z,12.60
2019-04-04T08:06:11.006Z,12.47
2019-04-04T08:08:42.118Z,12.25
2019-04-04T08:11:13.405Z,12.35
2019-04-04T08:13:44.785Z,12.43
2019-04-04T08:16:15.882Z,12.28
2019-04-04T08:18:47.012Z,12.85
2019-04-04T08:21:17.814Z,12.35
2019-04-04T08:23:48.804Z,12.15
2019-04-04T08:26:20.067Z,12.18
2019-04-04T08:28:51.448Z,12.45
2019-04-04T08:31:22.614Z,11.97
2019-04-04T08:33:53.783Z,12.18
2019-04-04T08:36:24.786Z,12.35
2019-04-04T08:38:56.022Z,11.70
2019-04-04T08:41:27.122Z,11.88
2019-04-04T08:43:58.421Z,11.75
2019-04-04T08:46:29.558Z,11.48
2019-04-04T08:49:00.683Z,11.53
2019-04-04T08:51:31.553Z,12.13
2019-04-04T08:54:02.730Z,11.75
2019-04-04T08:56:33.616Z,11.50
2019-04-04T08:59:04.429Z,11.85
2019-04-04T09:01:35.396Z,12.25
2019-04-04T09:04:06.463Z,12.13
2019-04-04T09:06:39.685Z,11.70
2019-04-04T09:09:10.838Z,11.97
2019-04-04T09:11:41.656Z,11.20
2019-04-04T09:14:12.485Z,11.40
2019-04-04T09:16:43.213Z,10.98
2019-04-04T09:19:14.163Z,10.43
2019-04-04T09:21:45.331Z,10.65
2019-04-04T09:24:16.440Z,11.00
2019-04-04T09:26:47.825Z,10.88
2019-04-04T09:29:18.944Z,10.53
2019-04-04T09:31:50.151Z,10.53
2019-04-04T09:34:21.154Z,10.43
2019-04-04T09:36:52.252Z,11.05
2019-04-04T09:39:23.490Z,10.28
2019-04-04T09:41:54.642Z,10.43
2019-04-04T09:44:25.792Z,10.03
2019-04-04T09:47:05.228Z,10.25
2019-04-04T09:49:29.717Z,10.28
2019-04-04T09:52:00.646Z,10.38
2019-04-04T09:54:31.812Z,10.58
2019-04-04T09:57:02.917Z,9.48
2019-04-04T09:59:34.169Z,9.65
2019-04-04T10:02:05.403Z,10.08
2019-04-04T10:04:36.507Z,9.28
2019-04-04T10:07:07.655Z,9.23
2019-04-04T10:09:38.700Z,9.78
2019-04-04T10:12:09.401Z,9.78
2019-04-04T10:14:40.256Z,9.50
2019-04-04T10:17:10.919Z,9.65
2019-04-04T10:19:41.931Z,9.23
2019-04-04T10:22:12.918Z,9.40
2019-04-04T10:24:43.821Z,10.15
2019-04-04T10:27:14.547Z,10.08
2019-04-04T10:29:45.475Z,9.23
2019-04-04T10:32:16.530Z,8.83
2019-04-04T10:34:47.490Z,9.30
2019-04-04T10:37:18.196Z,9.53
2019-04-04T10:39:48.904Z,9.35
2019-04-04T10:42:19.315Z,9.08
2019-04-04T10:44:50.192Z,9.05
2019-04-04T10:47:20.990Z,8.93
2019-04-04T10:49:51.759Z,8.83
2019-04-04T10:52:22.474Z,9.38
2019-04-04T10:54:53.099Z,9.13
2019-04-04T10:57:24.041Z,9.08
2019-04-04T10:59:54.979Z,8.70
2019-04-04T11:02:25.606Z,8.73
2019-04-04T11:04:56.453Z,9.10
2019-04-04T11:07:27.399Z,8.78
2019-04-04T11:09:58.036Z,8.90
2019-04-04T11:12:28.463Z,8.68
2019-04-04T11:14:58.867Z,8.38
2019-04-04T11:17:29.712Z,8.60
2019-04-04T11:20:00.127Z,8.43
2019-04-04T11:22:30.562Z,7.83
2019-04-04T11:25:01.181Z,8.00
2019-04-04T11:27:32.039Z,7.62
2019-04-04T11:30:02.645Z,7.72
2019-04-04T11:32:37.077Z,8.50
2019-04-04T11:35:08.750Z,7.87
2019-04-04T11:37:39.392Z,8.68
2019-04-04T11:40:10.099Z,7.85
2019-04-04T11:42:40.953Z,7.92
2019-04-04T11:45:11.912Z,8.05
2019-04-04T11:47:42.728Z,7.70
2019-04-04T11:50:13.745Z,7.97
2019-04-04T11:52:44.615Z,7.95
2019-04-04T11:55:15.332Z,7.28
2019-04-04T11:57:45.840Z,7.53
2019-04-04T12:00:22.278Z,7.40
2019-04-04T12:02:53.076Z,7.50
2019-04-04T12:05:24.015Z,8.05
2019-04-04T12:07:54.891Z,7.83
2019-04-04T12:10:25.677Z,7.85
2019-04-04T12:12:58.615Z,7.97
2019-04-04T12:15:29.009Z,7.90
2019-04-04T12:17:59.738Z,7.55
2019-04-04T12:20:30.661Z,7.47
2019-04-04T12:23:01.518Z,8.13
2019-04-04T12:25:32.498Z,7.45
2019-04-04T12:28:03.160Z,7.40
2019-04-04T12:30:33.839Z,7.50
2019-04-04T12:33:04.719Z,7.65
2019-04-04T12:35:35.158Z,7.28
2019-04-04T12:38:05.568Z,7.47
2019-04-04T12:40:36.010Z,6.90
2019-04-04T12:43:06.427Z,7.10
2019-04-04T12:45:37.324Z,7.50
2019-04-04T12:48:09.289Z,7.60
2019-04-04T12:50:40.415Z,7.50
2019-04-04T12:53:11.247Z,7.00
2019-04-04T12:55:41.976Z,7.75
2019-04-04T12:58:12.958Z,7.03
2019-04-04T13:00:43.910Z,7.22
2019-04-04T13:03:14.712Z,7.22
2019-04-04T13:05:45.642Z,6.83
2019-04-04T13:08:17.291Z,6.92
2019-04-04T13:10:48.037Z,7.33
2019-04-04T13:13:18.711Z,6.80
2019-04-04T13:15:49.826Z,7.08
2019-04-04T13:18:20.433Z,6.90
2019-04-04T13:20:51.269Z,6.70
2019-04-04T13:23:22.026Z,6.80
2019-04-04T13:25:52.659Z,6.20
2019-04-04T13:28:23.724Z,6.85
2019-04-04T13:30:54.516Z,7.12
2019-04-04T13:33:25.599Z,6.40
2019-04-04T13:35:56.207Z,6.33
2019-04-04T13:38:27.110Z,6.33
2019-04-04T13:41:00.361Z,6.45
2019-04-04T13:43:32.074Z,6.40
2019-04-04T13:46:02.720Z,6.70
2019-04-04T13:48:33.458Z,6.70
2019-04-04T13:51:04.269Z,6.30
2019-04-04T13:53:35.352Z,6.55
2019-04-04T13:56:08.124Z,6.58
2019-04-04T13:58:39.077Z,6.40
2019-04-04T14:01:09.915Z,6.40
2019-04-04T14:03:40.740Z,6.25
2019-04-04T14:06:11.394Z,6.22
2019-04-04T14:08:49.751Z,6.78
2019-04-04T14:11:20.584Z,6.40
2019-04-04T14:13:51.733Z,7.10
2019-04-04T14:16:22.587Z,6.47
2019-04-04T14:18:54.799Z,6.50
2019-04-04T14:21:25.423Z,6.75
2019-04-04T14:23:57.092Z,6.05
2019-04-04T14:26:29.278Z,6.22
2019-04-04T14:29:03.703Z,6.22
2019-04-04T14:31:33.369Z,5.90
2019-04-04T14:34:03.792Z,6.37
2019-04-04T14:36:34.733Z,6.17
2019-04-04T14:39:07.334Z,6.05
2019-04-04T14:41:38.262Z,6.40
2019-04-04T14:44:08.974Z,6.08
2019-04-04T14:46:39.968Z,6.55
2019-04-04T14:49:12.326Z,6.37
2019-04-04T14:51:43.557Z,5.80
2019-04-04T14:54:14.043Z,6.00
2019-04-04T14:56:44.688Z,6.03
2019-04-04T14:59:15.652Z,6.05
2019-04-04T15:01:46.575Z,5.90
2019-04-04T15:04:17.542Z,5.80
2019-04-04T15:06:48.339Z,6.25
2019-04-04T15:09:19.101Z,6.30
2019-04-04T15:11:49.771Z,5.95
2019-04-04T15:14:20.562Z,6.22
2019-04-04T15:16:52.710Z,6.10
2019-04-04T15:19:23.639Z,6.10
2019-04-04T15:21:54.275Z,5.92
2019-04-04T15:24:25.038Z,6.35
2019-04-04T15:26:55.751Z,6.30
2019-04-04T15:29:26.549Z,5.90
2019-04-04T15:31:57.250Z,6.35
2019-04-04T15:34:27.947Z,5.85
2019-04-04T15:36:58.614Z,6.30
2019-04-04T15:39:29.106Z,5.87
2019-04-04T15:41:59.961Z,5.42
2019-04-04T15:44:30.501Z,5.10
2019-04-04T15:47:01.337Z,5.80
2019-04-04T15:49:32.072Z,5.28
2019-04-04T15:52:03.016Z,5.30
2019-04-04T15:54:33.828Z,5.17
2019-04-04T15:57:04.352Z,4.80
2019-04-04T15:59:34.978Z,5.45
2019-04-04T16:02:05.445Z,5.97
2019-04-04T16:04:36.059Z,5.35
2019-04-04T16:07:06.774Z,5.78
2019-04-04T16:09:37.497Z,5.22
2019-04-04T16:12:08.043Z,5.40
2019-04-04T16:14:38.665Z,5.67
2019-04-04T16:17:09.292Z,5.55
2019-04-04T16:19:40.074Z,5.50
2019-04-04T16:22:10.693Z,5.37
2019-04-04T16:24:41.251Z,5.92
2019-04-04T16:27:11.695Z,6.30
2019-04-04T16:29:44.131Z,6.30
2019-04-04T16:32:14.605Z,6.12
2019-04-04T16:34:45.169Z,5.90
2019-04-04T16:37:15.868Z,5.50
2019-04-04T16:39:46.718Z,5.97
2019-04-04T16:42:17.370Z,5.83
2019-04-04T16:44:47.784Z,6.15
2019-04-04T16:47:20.505Z,10.60
2019-04-04T16:49:51.291Z,7.78
2019-04-04T16:52:21.982Z,7.20
2019-04-04T16:54:53.808Z,6.72
2019-04-04T16:57:24.443Z,6.58
2019-04-04T16:59:54.940Z,6.97
2019-04-04T17:02:25.588Z,6.90
2019-04-04T17:04:56.434Z,7.10
2019-04-04T17:07:26.898Z,6.00
2019-04-04T17:09:57.494Z,6.97
2019-04-04T17:12:28.208Z,6.62
2019-04-04T17:14:58.962Z,7.10
2019-04-04T17:17:29.716Z,6.85
2019-04-04T17:20:00.375Z,6.85
2019-04-04T17:22:30.941Z,6.40
2019-04-04T17:25:01.343Z,8.23
2019-04-04T17:27:31.898Z,8.25
2019-04-04T17:30:02.765Z,8.60
2019-04-04T17:32:33.898Z,8.65
2019-04-04T17:35:05.408Z,8.65
2019-04-04T17:37:36.073Z,9.20
2019-04-04T17:40:08.341Z,9.80
2019-04-04T17:42:39.205Z,9.75
2019-04-04T17:45:10.301Z,10.10
2019-04-04T17:47:41.211Z,9.70
2019-04-04T17:50:12.064Z,10.15
2019-04-04T17:52:43.529Z,12.70
2019-04-04T17:55:14.342Z,24.52
2019-04-04T17:57:45.361Z,19.90
2019-04-04T18:00:16.426Z,17.35
2019-04-04T18:02:47.174Z,15.25
2019-04-04T18:05:17.676Z,18.50
2019-04-04T18:07:48.248Z,28.98
2019-04-04T18:10:19.089Z,21.93
2019-04-04T18:12:49.825Z,34.38
2019-04-04T18:15:20.464Z,16.97
2019-04-04T18:17:51.022Z,16.30
2019-04-04T18:20:21.720Z,16.10
2019-04-04T18:22:52.471Z,15.80
2019-04-04T18:25:24.112Z,14.45
2019-04-04T18:27:54.524Z,15.15
2019-04-04T18:30:24.964Z,18.70
2019-04-04T18:32:55.614Z,15.35
2019-04-04T18:35:26.719Z,15.78
2019-04-04T18:37:57.683Z,25.82
2019-04-04T18:40:28.597Z,24.18
2019-04-04T18:42:59.732Z,20.62
2019-04-04T18:45:30.429Z,15.93
2019-04-04T18:48:01.243Z,15.18
2019-04-04T18:50:31.969Z,14.87
2019-04-04T18:53:02.761Z,14.13
2019-04-04T18:55:33.396Z,15.25
2019-04-04T18:58:03.992Z,13.55
2019-04-04T19:00:34.704Z,13.88
2019-04-04T19:03:05.312Z,13.95
2019-04-04T19:05:35.767Z,13.22
2019-04-04T19:08:06.329Z,12.80
2019-04-04T19:10:36.968Z,12.43
2019-04-04T19:13:08.044Z,12.47
2019-04-04T19:15:38.581Z,12.35
2019-04-04T19:18:09.125Z,12.35
2019-04-04T19:20:40.291Z,12.45
2019-04-04T19:23:11.536Z,11.88
2019-04-04T19:25:43.123Z,11.43
2019-04-04T19:28:14.463Z,11.45
2019-04-04T19:30:45.787Z,11.33
2019-04-04T19:33:17.040Z,10.60
2019-04-04T19:35:47.778Z,10.90
2019-04-04T19:38:18.796Z,10.60
2019-04-04T19:40:50.130Z,10.43
2019-04-04T19:43:21.330Z,10.18
2019-04-04T19:45:51.998Z,9.98
2019-04-04T19:48:23.040Z,9.83
2019-04-04T19:50:54.513Z,10.18
2019-04-04T19:53:25.090Z,9.43
2019-04-04T19:55:56.766Z,9.35
2019-04-04T19:58:27.435Z,8.98
2019-04-04T20:00:59.007Z,9.00
2019-04-04T20:03:30.050Z,9.70
2019-04-04T20:06:01.262Z,8.83
2019-04-04T20:08:32.470Z,9.48
2019-04-04T20:11:03.223Z,9.08
2019-04-04T20:13:34.563Z,8.70
2019-04-04T20:16:06.061Z,9.08
2019-04-04T20:18:37.849Z,9.80
2019-04-04T20:21:09.202Z,9.68
2019-04-04T20:23:40.537Z,8.90
2019-04-04T20:26:11.988Z,9.28
2019-04-04T20:28:45.045Z,9.30
2019-04-04T20:31:15.834Z,8.80
2019-04-04T20:33:46.487Z,9.05
2019-04-04T20:36:17.206Z,9.95
2019-04-04T20:38:48.196Z,9.35
2019-04-04T20:41:19.105Z,9.33
2019-04-04T20:43:50.340Z,10.18
2019-04-04T20:46:21.079Z,10.30
2019-04-04T20:48:51.628Z,9.78
2019-04-04T20:51:22.248Z,9.63
2019-04-04T20:53:52.958Z,9.60
2019-04-04T20:56:23.719Z,9.85
2019-04-04T20:58:54.655Z,9.98
2019-04-04T21:01:25.487Z,9.30
2019-04-04T21:03:56.217Z,9.95
2019-04-04T21:06:26.968Z,10.35
2019-04-04T21:08:57.568Z,9.18
2019-04-04T21:11:28.083Z,9.90
2019-04-04T21:13:58.832Z,10.30
2019-04-04T21:16:30.482Z,10.20
2019-04-04T21:19:02.068Z,9.25
2019-04-04T21:21:33.035Z,9.13
2019-04-04T21:24:04.903Z,9.20
2019-04-04T21:26:35.797Z,9.20
2019-04-04T21:29:07.531Z,9.15
2019-04-04T21:31:38.322Z,9.13
2019-04-04T21:34:09.320Z,9.00
2019-04-04T21:36:40.051Z,8.98
2019-04-04T21:39:10.630Z,9.00
2019-04-04T21:41:41.182Z,8.85
2019-04-04T21:44:11.923Z,9.18
2019-04-04T21:46:42.676Z,8.58
2019-04-04T21:49:13.323Z,8.83
2019-04-04T21:51:44.096Z,9.00
2019-04-04T21:54:14.789Z,8.48
2019-04-04T21:56:45.601Z,8.43
2019-04-04T21:59:16.135Z,8.33
2019-04-04T22:01:46.767Z,8.78
2019-04-04T22:04:17.657Z,7.75
2019-04-04T22:06:49.618Z,8.30
2019-04-04T22:09:20.478Z,8.15
2019-04-04T22:11:51.095Z,7.85
2019-04-04T22:14:22.465Z,7.58
2019-04-04T22:16:53.166Z,7.45
2019-04-04T22:19:23.901Z,8.28
2019-04-04T22:21:54.868Z,7.42
2019-04-04T22:24:25.802Z,7.78
2019-04-04T22:26:56.552Z,8.00
2019-04-04T22:29:27.239Z,8.10
2019-04-04T22:31:58.201Z,7.37
2019-04-04T22:34:28.894Z,7.85
2019-04-04T22:36:59.545Z,7.15
2019-04-04T22:39:30.929Z,7.40
2019-04-04T22:42:01.659Z,7.28
2019-04-04T22:44:35.063Z,7.28
2019-04-04T22:47:05.134Z,7.15
2019-04-04T22:49:36.016Z,7.37
2019-04-04T22:52:06.692Z,7.20
2019-04-04T22:54:37.444Z,7.65
2019-04-04T22:57:07.959Z,6.90
2019-04-04T22:59:38.750Z,7.30
2019-04-04T23:02:09.367Z,6.75
2019-04-04T23:04:40.039Z,6.80
2019-04-04T23:07:10.811Z,7.10
2019-04-04T23:09:41.483Z,7.12
2019-04-04T23:12:12.211Z,6.30
2019-04-04T23:14:48.264Z,7.17
2019-04-04T23:17:15.612Z,6.47
2019-04-04T23:19:46.381Z,6.87
2019-04-04T23:22:17.086Z,6.08
2019-04-04T23:24:48.046Z,6.58
2019-04-04T23:27:20.300Z,6.95
2019-04-04T23:29:51.231Z,7.03
2019-04-04T23:32:22.066Z,6.30
2019-04-04T23:34:52.676Z,6.40
2019-04-04T23:37:23.544Z,6.50
2019-04-04T23:39:54.465Z,6.45
2019-04-04T23:42:25.299Z,6.47
2019-04-04T23:45:01.077Z,6.58
2019-04-04T23:47:28.453Z,6.65
2019-04-04T23:49:59.155Z,6.20
2019-04-04T23:52:29.781Z,6.78
2019-04-04T23:55:00.625Z,6.22
2019-04-04T23:57:31.391Z,6.15
